sensor_id;sensor_type;location;lat;lon;timestamp;P1;durP1;ratioP1;P2;durP2;ratioP2
20101;SDS011;10210;52.284;9.892;2023-04-24T00:00:24;2.60;;;1.30;;
20101;SDS011;10210;52.284;9.892;2023-04-24T00:02:50;3.57;;;1.50;;
20101;SDS011;10210;52.284;9.892;2023-04-24T00:05:16;2.73;;;1.30;;
20101;SDS011;10210;52.284;9.892;2023-04-24T00:07:43;4.17;;;1.50;;
20101;SDS011;10210;52.284;9.892;2023-04-24T00:10:10;3.73;;;1.50;;
20101;SDS011;10210;52.284;9.892;2023-04-24T00:12:36;3.50;;;1.70;;
20101;SDS011;10210;52.284;9.892;2023-04-24T00:15:03;3.13;;;1.50;;
20101;SDS011;10210;52.284;9.892;2023-04-24T00:17:30;3.17;;;1.50;;
20101;SDS011;10210;52.284;9.892;2023-04-24T00:19:56;2.87;;;1.50;;
20101;SDS011;10210;52.284;9.892;2023-04-24T00:22:25;3.47;;;1.63;;
20101;SDS011;10210;52.284;9.892;2023-04-24T00:24:53;3.20;;;1.40;;
20101;SDS011;10210;52.284;9.892;2023-04-24T00:27:19;3.60;;;1.60;;
20101;SDS011;10210;52.284;9.892;2023-04-24T00:29:45;2.77;;;1.40;;
20101;SDS011;10210;52.284;9.892;2023-04-24T00:32:11;4.73;;;1.60;;
20101;SDS011;10210;52.284;9.892;2023-04-24T00:34:36;2.10;;;1.40;;
20101;SDS011;10210;52.284;9.892;2023-04-24T00:37:02;5.27;;;1.90;;
20101;SDS011;10210;52.284;9.892;2023-04-24T00:39:28;3.77;;;1.80;;
20101;SDS011;10210;52.284;9.892;2023-04-24T00:41:53;2.63;;;1.70;;
20101;SDS011;10210;52.284;9.892;2023-04-24T00:44:20;4.10;;;1.77;;
20101;SDS011;10210;52.284;9.892;2023-04-24T00:46:45;3.77;;;1.60;;
20101;SDS011;10210;52.284;9.892;2023-04-24T00:49:13;3.07;;;1.80;;
20101;SDS011;10210;52.284;9.892;2023-04-24T00:51:39;4.20;;;1.90;;
20101;SDS011;10210;52.284;9.892;2023-04-24T00:54:05;2.30;;;1.70;;
20101;SDS011;10210;52.284;9.892;2023-04-24T00:56:31;4.27;;;1.90;;
20101;SDS011;10210;52.284;9.892;2023-04-24T00:58:57;4.90;;;1.90;;
20101;SDS011;10210;52.284;9.892;2023-04-24T01:01:23;2.83;;;1.70;;
20101;SDS011;10210;52.284;9.892;2023-04-24T01:03:49;5.00;;;1.80;;
20101;SDS011;10210;52.284;9.892;2023-04-24T01:06:16;2.97;;;1.70;;
20101;SDS011;10210;52.284;9.892;2023-04-24T01:08:44;3.57;;;1.63;;
20101;SDS011;10210;52.284;9.892;2023-04-24T01:11:12;2.63;;;1.70;;
20101;SDS011;10210;52.284;9.892;2023-04-24T01:13:39;3.17;;;1.50;;
20101;SDS011;10210;52.284;9.892;2023-04-24T01:16:05;2.30;;;1.37;;
20101;SDS011;10210;52.284;9.892;2023-04-24T01:18:31;3.27;;;1.40;;
20101;SDS011;10210;52.284;9.892;2023-04-24T01:20:57;4.13;;;1.40;;
20101;SDS011;10210;52.284;9.892;2023-04-24T01:23:27;3.00;;;1.50;;
20101;SDS011;10210;52.284;9.892;2023-04-24T01:25:53;5.17;;;1.73;;
20101;SDS011;10210;52.284;9.892;2023-04-24T01:28:19;2.63;;;1.40;;
20101;SDS011;10210;52.284;9.892;2023-04-24T01:30:45;2.07;;;1.37;;
20101;SDS011;10210;52.284;9.892;2023-04-24T01:33:11;2.73;;;1.40;;
20101;SDS011;10210;52.284;9.892;2023-04-24T01:35:37;2.17;;;1.17;;
20101;SDS011;10210;52.284;9.892;2023-04-24T01:38:03;3.13;;;1.40;;
20101;SDS011;10210;52.284;9.892;2023-04-24T01:40:30;4.20;;;1.43;;
20101;SDS011;10210;52.284;9.892;2023-04-24T01:42:57;3.03;;;1.30;;
20101;SDS011;10210;52.284;9.892;2023-04-24T01:45:23;4.13;;;1.47;;
20101;SDS011;10210;52.284;9.892;2023-04-24T01:47:50;1.80;;;1.20;;
20101;SDS011;10210;52.284;9.892;2023-04-24T01:50:15;2.57;;;1.37;;
20101;SDS011;10210;52.284;9.892;2023-04-24T01:52:42;2.33;;;1.30;;
20101;SDS011;10210;52.284;9.892;2023-04-24T01:55:08;5.13;;;1.43;;
20101;SDS011;10210;52.284;9.892;2023-04-24T01:57:34;2.43;;;1.30;;
20101;SDS011;10210;52.284;9.892;2023-04-24T02:00:01;3.07;;;1.50;;
20101;SDS011;10210;52.284;9.892;2023-04-24T02:02:29;3.90;;;1.80;;
20101;SDS011;10210;52.284;9.892;2023-04-24T02:04:55;4.37;;;1.50;;
20101;SDS011;10210;52.284;9.892;2023-04-24T02:07:21;3.87;;;1.67;;
20101;SDS011;10210;52.284;9.892;2023-04-24T02:09:47;4.67;;;1.80;;
20101;SDS011;10210;52.284;9.892;2023-04-24T02:12:14;3.70;;;1.83;;
20101;SDS011;10210;52.284;9.892;2023-04-24T02:14:42;3.43;;;1.80;;
20101;SDS011;10210;52.284;9.892;2023-04-24T02:17:08;3.53;;;1.90;;
20101;SDS011;10210;52.284;9.892;2023-04-24T02:19:38;4.80;;;2.00;;
20101;SDS011;10210;52.284;9.892;2023-04-24T02:22:04;5.00;;;1.97;;
20101;SDS011;10210;52.284;9.892;2023-04-24T02:24:29;3.73;;;1.80;;
20101;SDS011;10210;52.284;9.892;2023-04-24T02:26:55;4.63;;;1.90;;
20101;SDS011;10210;52.284;9.892;2023-04-24T02:29:21;3.60;;;1.70;;
20101;SDS011;10210;52.284;9.892;2023-04-24T02:31:46;4.63;;;1.83;;
20101;SDS011;10210;52.284;9.892;2023-04-24T02:34:12;4.70;;;1.90;;
20101;SDS011;10210;52.284;9.892;2023-04-24T02:36:38;4.17;;;1.80;;
20101;SDS011;10210;52.284;9.892;2023-04-24T02:39:03;2.80;;;1.60;;
20101;SDS011;10210;52.284;9.892;2023-04-24T02:41:29;4.00;;;1.73;;
20101;SDS011;10210;52.284;9.892;2023-04-24T02:43:57;4.43;;;1.60;;
20101;SDS011;10210;52.284;9.892;2023-04-24T02:46:23;3.43;;;1.80;;
20101;SDS011;10210;52.284;9.892;2023-04-24T02:48:50;4.27;;;2.00;;
20101;SDS011;10210;52.284;9.892;2023-04-24T02:51:15;3.77;;;1.90;;
20101;SDS011;10210;52.284;9.892;2023-04-24T02:53:41;4.90;;;1.80;;
20101;SDS011;10210;52.284;9.892;2023-04-24T02:56:07;4.57;;;1.70;;
20101;SDS011;10210;52.284;9.892;2023-04-24T02:58:33;5.63;;;1.70;;
20101;SDS011;10210;52.284;9.892;2023-04-24T03:00:58;3.83;;;1.80;;
20101;SDS011;10210;52.284;9.892;2023-04-24T03:03:25;4.50;;;1.60;;
20101;SDS011;10210;52.284;9.892;2023-04-24T03:05:51;4.37;;;1.63;;
20101;SDS011;10210;52.284;9.892;2023-04-24T03:08:17;4.73;;;1.70;;
20101;SDS011;10210;52.284;9.892;2023-04-24T03:10:42;3.53;;;1.50;;
20101;SDS011;10210;52.284;9.892;2023-04-24T03:13:08;3.50;;;1.70;;
20101;SDS011;10210;52.284;9.892;2023-04-24T03:15:34;8.17;;;1.80;;
20101;SDS011;10210;52.284;9.892;2023-04-24T03:18:00;3.70;;;1.33;;
20101;SDS011;10210;52.284;9.892;2023-04-24T03:20:26;3.40;;;1.57;;
20101;SDS011;10210;52.284;9.892;2023-04-24T03:22:51;3.17;;;1.53;;
20101;SDS011;10210;52.284;9.892;2023-04-24T03:25:17;2.07;;;1.27;;
20101;SDS011;10210;52.284;9.892;2023-04-24T03:27:43;2.77;;;1.50;;
20101;SDS011;10210;52.284;9.892;2023-04-24T03:30:09;3.93;;;1.47;;
20101;SDS011;10210;52.284;9.892;2023-04-24T03:32:35;3.70;;;1.50;;
20101;SDS011;10210;52.284;9.892;2023-04-24T03:35:01;3.53;;;1.40;;
20101;SDS011;10210;52.284;9.892;2023-04-24T03:37:27;2.40;;;1.40;;
20101;SDS011;10210;52.284;9.892;2023-04-24T03:39:52;3.37;;;1.53;;
20101;SDS011;10210;52.284;9.892;2023-04-24T03:42:18;3.20;;;1.50;;
20101;SDS011;10210;52.284;9.892;2023-04-24T03:44:44;3.53;;;1.47;;
20101;SDS011;10210;52.284;9.892;2023-04-24T03:47:09;3.50;;;1.50;;
20101;SDS011;10210;52.284;9.892;2023-04-24T03:49:35;3.30;;;1.70;;
20101;SDS011;10210;52.284;9.892;2023-04-24T03:52:00;3.57;;;1.40;;
20101;SDS011;10210;52.284;9.892;2023-04-24T03:54:26;2.50;;;1.20;;
20101;SDS011;10210;52.284;9.892;2023-04-24T03:56:52;2.20;;;1.53;;
20101;SDS011;10210;52.284;9.892;2023-04-24T03:59:18;3.23;;;1.43;;
20101;SDS011;10210;52.284;9.892;2023-04-24T04:01:44;2.37;;;1.33;;
20101;SDS011;10210;52.284;9.892;2023-04-24T04:04:10;2.67;;;1.37;;
20101;SDS011;10210;52.284;9.892;2023-04-24T04:06:35;3.90;;;1.60;;
20101;SDS011;10210;52.284;9.892;2023-04-24T04:09:02;6.57;;;1.73;;
20101;SDS011;10210;52.284;9.892;2023-04-24T04:11:28;2.73;;;1.50;;
20101;SDS011;10210;52.284;9.892;2023-04-24T04:13:54;1.43;;;1.00;;
20101;SDS011;10210;52.284;9.892;2023-04-24T04:16:21;2.93;;;1.20;;
20101;SDS011;10210;52.284;9.892;2023-04-24T04:18:47;3.77;;;1.43;;
20101;SDS011;10210;52.284;9.892;2023-04-24T04:21:13;2.93;;;1.40;;
20101;SDS011;10210;52.284;9.892;2023-04-24T04:23:39;3.03;;;1.50;;
20101;SDS011;10210;52.284;9.892;2023-04-24T04:26:05;1.83;;;1.30;;
20101;SDS011;10210;52.284;9.892;2023-04-24T04:28:31;2.50;;;1.43;;
20101;SDS011;10210;52.284;9.892;2023-04-24T04:30:57;2.77;;;1.23;;
20101;SDS011;10210;52.284;9.892;2023-04-24T04:33:23;3.00;;;1.50;;
20101;SDS011;10210;52.284;9.892;2023-04-24T04:35:51;1.90;;;1.23;;
20101;SDS011;10210;52.284;9.892;2023-04-24T04:38:20;2.30;;;1.40;;
20101;SDS011;10210;52.284;9.892;2023-04-24T04:40:46;2.80;;;1.43;;
20101;SDS011;10210;52.284;9.892;2023-04-24T04:43:12;3.57;;;1.50;;
20101;SDS011;10210;52.284;9.892;2023-04-24T04:45:39;4.30;;;1.60;;
20101;SDS011;10210;52.284;9.892;2023-04-24T04:48:07;4.40;;;1.40;;
20101;SDS011;10210;52.284;9.892;2023-04-24T04:50:34;3.37;;;1.50;;
20101;SDS011;10210;52.284;9.892;2023-04-24T04:53:02;2.10;;;1.30;;
20101;SDS011;10210;52.284;9.892;2023-04-24T04:55:28;3.40;;;1.60;;
20101;SDS011;10210;52.284;9.892;2023-04-24T04:57:54;2.30;;;1.40;;
20101;SDS011;10210;52.284;9.892;2023-04-24T05:00:20;2.90;;;1.40;;
20101;SDS011;10210;52.284;9.892;2023-04-24T05:02:46;4.27;;;1.60;;
20101;SDS011;10210;52.284;9.892;2023-04-24T05:05:12;4.97;;;1.47;;
20101;SDS011;10210;52.284;9.892;2023-04-24T05:07:40;3.17;;;1.40;;
20101;SDS011;10210;52.284;9.892;2023-04-24T05:10:06;4.13;;;1.50;;
20101;SDS011;10210;52.284;9.892;2023-04-24T05:12:33;2.90;;;1.30;;
20101;SDS011;10210;52.284;9.892;2023-04-24T05:14:58;2.30;;;1.50;;
20101;SDS011;10210;52.284;9.892;2023-04-24T05:17:24;4.27;;;1.50;;
20101;SDS011;10210;52.284;9.892;2023-04-24T05:19:50;4.50;;;1.53;;
20101;SDS011;10210;52.284;9.892;2023-04-24T05:22:16;2.13;;;1.50;;
20101;SDS011;10210;52.284;9.892;2023-04-24T05:24:43;2.17;;;1.23;;
20101;SDS011;10210;52.284;9.892;2023-04-24T05:27:10;3.07;;;1.50;;
20101;SDS011;10210;52.284;9.892;2023-04-24T05:29:35;2.30;;;1.30;;
20101;SDS011;10210;52.284;9.892;2023-04-24T05:32:01;3.93;;;1.63;;
20101;SDS011;10210;52.284;9.892;2023-04-24T05:34:28;2.27;;;1.30;;
20101;SDS011;10210;52.284;9.892;2023-04-24T05:36:57;3.60;;;1.47;;
20101;SDS011;10210;52.284;9.892;2023-04-24T05:39:23;4.53;;;1.37;;
20101;SDS011;10210;52.284;9.892;2023-04-24T05:41:49;4.03;;;1.50;;
20101;SDS011;10210;52.284;9.892;2023-04-24T05:44:16;4.10;;;1.50;;
20101;SDS011;10210;52.284;9.892;2023-04-24T05:46:41;4.40;;;1.43;;
20101;SDS011;10210;52.284;9.892;2023-04-24T05:49:07;4.43;;;1.20;;
20101;SDS011;10210;52.284;9.892;2023-04-24T05:51:33;4.00;;;1.80;;
20101;SDS011;10210;52.284;9.892;2023-04-24T05:53:58;2.23;;;1.23;;
20101;SDS011;10210;52.284;9.892;2023-04-24T05:56:24;4.90;;;1.40;;
20101;SDS011;10210;52.284;9.892;2023-04-24T05:58:50;4.90;;;1.67;;
20101;SDS011;10210;52.284;9.892;2023-04-24T06:01:16;7.97;;;2.60;;
20101;SDS011;10210;52.284;9.892;2023-04-24T06:03:41;7.27;;;1.97;;
20101;SDS011;10210;52.284;9.892;2023-04-24T06:06:07;4.17;;;1.67;;
20101;SDS011;10210;52.284;9.892;2023-04-24T06:08:34;2.77;;;1.50;;
20101;SDS011;10210;52.284;9.892;2023-04-24T06:11:00;2.63;;;1.43;;
20101;SDS011;10210;52.284;9.892;2023-04-24T06:13:26;5.13;;;1.70;;
20101;SDS011;10210;52.284;9.892;2023-04-24T06:15:52;6.20;;;1.97;;
20101;SDS011;10210;52.284;9.892;2023-04-24T06:18:18;4.03;;;1.80;;
20101;SDS011;10210;52.284;9.892;2023-04-24T06:20:50;3.47;;;1.80;;
20101;SDS011;10210;52.284;9.892;2023-04-24T06:23:16;4.63;;;2.03;;
20101;SDS011;10210;52.284;9.892;2023-04-24T06:25:42;3.17;;;1.73;;
20101;SDS011;10210;52.284;9.892;2023-04-24T06:28:09;3.97;;;1.83;;
20101;SDS011;10210;52.284;9.892;2023-04-24T06:30:36;3.60;;;1.60;;
20101;SDS011;10210;52.284;9.892;2023-04-24T06:33:01;4.20;;;1.70;;
20101;SDS011;10210;52.284;9.892;2023-04-24T06:35:27;3.43;;;1.77;;
20101;SDS011;10210;52.284;9.892;2023-04-24T06:37:53;3.03;;;1.87;;
20101;SDS011;10210;52.284;9.892;2023-04-24T06:40:21;4.07;;;1.80;;
20101;SDS011;10210;52.284;9.892;2023-04-24T06:42:47;4.17;;;1.80;;
20101;SDS011;10210;52.284;9.892;2023-04-24T06:45:13;4.23;;;1.70;;
20101;SDS011;10210;52.284;9.892;2023-04-24T06:47:38;3.33;;;1.77;;
20101;SDS011;10210;52.284;9.892;2023-04-24T06:50:04;3.90;;;1.70;;
20101;SDS011;10210;52.284;9.892;2023-04-24T06:52:32;3.27;;;1.70;;
20101;SDS011;10210;52.284;9.892;2023-04-24T06:55:04;3.33;;;1.70;;
20101;SDS011;10210;52.284;9.892;2023-04-24T06:57:30;2.80;;;1.63;;
20101;SDS011;10210;52.284;9.892;2023-04-24T06:59:56;5.27;;;1.70;;
20101;SDS011;10210;52.284;9.892;2023-04-24T07:02:22;5.57;;;2.20;;
20101;SDS011;10210;52.284;9.892;2023-04-24T07:04:48;4.27;;;1.90;;
20101;SDS011;10210;52.284;9.892;2023-04-24T07:07:14;4.67;;;2.30;;
20101;SDS011;10210;52.284;9.892;2023-04-24T07:09:40;4.40;;;1.90;;
20101;SDS011;10210;52.284;9.892;2023-04-24T07:12:07;6.03;;;1.97;;
20101;SDS011;10210;52.284;9.892;2023-04-24T07:14:35;4.30;;;2.07;;
20101;SDS011;10210;52.284;9.892;2023-04-24T07:17:04;9.77;;;4.10;;
20101;SDS011;10210;52.284;9.892;2023-04-24T07:19:31;10.57;;;4.50;;
20101;SDS011;10210;52.284;9.892;2023-04-24T07:21:58;9.23;;;4.20;;
20101;SDS011;10210;52.284;9.892;2023-04-24T07:24:24;11.37;;;5.10;;
20101;SDS011;10210;52.284;9.892;2023-04-24T07:26:51;12.60;;;4.97;;
20101;SDS011;10210;52.284;9.892;2023-04-24T07:29:18;11.90;;;5.33;;
20101;SDS011;10210;52.284;9.892;2023-04-24T07:31:44;12.23;;;5.87;;
20101;SDS011;10210;52.284;9.892;2023-04-24T07:34:10;12.20;;;5.70;;
20101;SDS011;10210;52.284;9.892;2023-04-24T07:36:36;13.57;;;5.97;;
20101;SDS011;10210;52.284;9.892;2023-04-24T07:39:03;11.93;;;5.53;;
20101;SDS011;10210;52.284;9.892;2023-04-24T07:41:29;11.77;;;5.37;;
20101;SDS011;10210;52.284;9.892;2023-04-24T07:43:55;12.70;;;5.90;;
20101;SDS011;10210;52.284;9.892;2023-04-24T07:46:21;11.47;;;5.50;;
20101;SDS011;10210;52.284;9.892;2023-04-24T07:48:48;12.30;;;5.67;;
20101;SDS011;10210;52.284;9.892;2023-04-24T07:51:14;13.73;;;5.70;;
20101;SDS011;10210;52.284;9.892;2023-04-24T07:53:41;12.50;;;6.00;;
20101;SDS011;10210;52.284;9.892;2023-04-24T07:56:07;12.70;;;6.03;;
20101;SDS011;10210;52.284;9.892;2023-04-24T07:58:33;12.37;;;5.40;;
20101;SDS011;10210;52.284;9.892;2023-04-24T08:01:00;11.33;;;5.43;;
20101;SDS011;10210;52.284;9.892;2023-04-24T08:03:27;11.90;;;5.30;;
20101;SDS011;10210;52.284;9.892;2023-04-24T08:05:52;10.60;;;4.77;;
20101;SDS011;10210;52.284;9.892;2023-04-24T08:08:20;9.80;;;4.67;;
20101;SDS011;10210;52.284;9.892;2023-04-24T08:10:47;12.40;;;5.20;;
20101;SDS011;10210;52.284;9.892;2023-04-24T08:13:14;11.60;;;4.87;;
20101;SDS011;10210;52.284;9.892;2023-04-24T08:15:39;10.30;;;4.80;;
20101;SDS011;10210;52.284;9.892;2023-04-24T08:18:05;11.33;;;5.40;;
20101;SDS011;10210;52.284;9.892;2023-04-24T08:20:31;11.10;;;4.37;;
20101;SDS011;10210;52.284;9.892;2023-04-24T08:22:56;11.57;;;5.07;;
20101;SDS011;10210;52.284;9.892;2023-04-24T08:25:22;11.73;;;5.23;;
20101;SDS011;10210;52.284;9.892;2023-04-24T08:27:49;10.87;;;5.37;;
20101;SDS011;10210;52.284;9.892;2023-04-24T08:30:15;11.57;;;4.87;;
20101;SDS011;10210;52.284;9.892;2023-04-24T08:32:42;12.50;;;5.40;;
20101;SDS011;10210;52.284;9.892;2023-04-24T08:35:08;11.13;;;5.40;;
20101;SDS011;10210;52.284;9.892;2023-04-24T08:37:34;11.43;;;5.20;;
20101;SDS011;10210;52.284;9.892;2023-04-24T08:40:01;11.33;;;5.17;;
20101;SDS011;10210;52.284;9.892;2023-04-24T08:42:34;12.23;;;5.77;;
20101;SDS011;10210;52.284;9.892;2023-04-24T08:45:03;13.53;;;5.70;;
20101;SDS011;10210;52.284;9.892;2023-04-24T08:47:29;12.17;;;5.30;;
20101;SDS011;10210;52.284;9.892;2023-04-24T08:49:56;12.50;;;5.80;;
20101;SDS011;10210;52.284;9.892;2023-04-24T08:52:24;11.37;;;5.23;;
20101;SDS011;10210;52.284;9.892;2023-04-24T08:54:50;12.10;;;5.70;;
20101;SDS011;10210;52.284;9.892;2023-04-24T08:57:19;12.17;;;5.53;;
20101;SDS011;10210;52.284;9.892;2023-04-24T08:59:46;11.00;;;5.20;;
20101;SDS011;10210;52.284;9.892;2023-04-24T09:02:12;10.70;;;5.03;;
20101;SDS011;10210;52.284;9.892;2023-04-24T09:04:40;11.80;;;5.40;;
20101;SDS011;10210;52.284;9.892;2023-04-24T09:07:07;12.53;;;5.60;;
20101;SDS011;10210;52.284;9.892;2023-04-24T09:09:35;10.73;;;4.97;;
20101;SDS011;10210;52.284;9.892;2023-04-24T09:12:03;12.93;;;4.90;;
20101;SDS011;10210;52.284;9.892;2023-04-24T09:14:29;11.30;;;4.80;;
20101;SDS011;10210;52.284;9.892;2023-04-24T09:16:56;12.47;;;5.00;;
20101;SDS011;10210;52.284;9.892;2023-04-24T09:19:22;10.77;;;4.60;;
20101;SDS011;10210;52.284;9.892;2023-04-24T09:21:48;11.17;;;4.90;;
20101;SDS011;10210;52.284;9.892;2023-04-24T09:24:17;11.37;;;4.70;;
20101;SDS011;10210;52.284;9.892;2023-04-24T09:26:47;10.20;;;4.13;;
20101;SDS011;10210;52.284;9.892;2023-04-24T09:29:20;9.10;;;4.20;;
20101;SDS011;10210;52.284;9.892;2023-04-24T09:31:46;8.13;;;3.63;;
20101;SDS011;10210;52.284;9.892;2023-04-24T09:34:12;6.93;;;3.00;;
20101;SDS011;10210;52.284;9.892;2023-04-24T09:36:39;9.47;;;3.40;;
20101;SDS011;10210;52.284;9.892;2023-04-24T09:39:11;7.30;;;3.30;;
20101;SDS011;10210;52.284;9.892;2023-04-24T09:41:45;8.67;;;3.40;;
20101;SDS011;10210;52.284;9.892;2023-04-24T09:44:26;8.47;;;3.40;;
20101;SDS011;10210;52.284;9.892;2023-04-24T09:46:54;8.00;;;3.43;;
20101;SDS011;10210;52.284;9.892;2023-04-24T09:49:23;7.90;;;3.20;;
20101;SDS011;10210;52.284;9.892;2023-04-24T09:51:51;9.60;;;3.50;;
20101;SDS011;10210;52.284;9.892;2023-04-24T09:54:26;7.87;;;3.13;;
20101;SDS011;10210;52.284;9.892;2023-04-24T09:56:52;6.73;;;3.17;;
20101;SDS011;10210;52.284;9.892;2023-04-24T09:59:20;7.40;;;3.10;;
20101;SDS011;10210;52.284;9.892;2023-04-24T10:01:47;7.50;;;3.10;;
20101;SDS011;10210;52.284;9.892;2023-04-24T10:04:24;6.43;;;2.60;;
20101;SDS011;10210;52.284;9.892;2023-04-24T10:06:56;6.93;;;3.10;;
20101;SDS011;10210;52.284;9.892;2023-04-24T10:09:23;6.20;;;2.90;;
20101;SDS011;10210;52.284;9.892;2023-04-24T10:11:52;6.03;;;2.90;;
20101;SDS011;10210;52.284;9.892;2023-04-24T10:14:20;7.00;;;3.10;;
20101;SDS011;10210;52.284;9.892;2023-04-24T10:16:49;7.70;;;2.90;;
20101;SDS011;10210;52.284;9.892;2023-04-24T10:19:18;7.33;;;2.90;;
20101;SDS011;10210;52.284;9.892;2023-04-24T10:21:45;6.67;;;2.80;;
20101;SDS011;10210;52.284;9.892;2023-04-24T10:24:18;5.47;;;2.57;;
20101;SDS011;10210;52.284;9.892;2023-04-24T10:26:47;4.47;;;2.40;;
20101;SDS011;10210;52.284;9.892;2023-04-24T10:29:13;5.30;;;2.60;;
20101;SDS011;10210;52.284;9.892;2023-04-24T10:31:42;8.53;;;2.67;;
20101;SDS011;10210;52.284;9.892;2023-04-24T10:34:10;6.53;;;2.80;;
20101;SDS011;10210;52.284;9.892;2023-04-24T10:36:38;6.60;;;2.90;;
20101;SDS011;10210;52.284;9.892;2023-04-24T10:39:11;5.73;;;2.80;;
20101;SDS011;10210;52.284;9.892;2023-04-24T10:41:40;7.30;;;2.50;;
20101;SDS011;10210;52.284;9.892;2023-04-24T10:44:10;6.17;;;2.73;;
20101;SDS011;10210;52.284;9.892;2023-04-24T10:46:39;6.30;;;2.50;;
20101;SDS011;10210;52.284;9.892;2023-04-24T10:49:09;5.83;;;2.43;;
20101;SDS011;10210;52.284;9.892;2023-04-24T10:51:51;6.00;;;2.40;;
20101;SDS011;10210;52.284;9.892;2023-04-24T10:59:51;4.97;;;2.30;;
20101;SDS011;10210;52.284;9.892;2023-04-24T11:02:41;3.73;;;2.20;;
20101;SDS011;10210;52.284;9.892;2023-04-24T11:05:14;5.27;;;2.50;;
20101;SDS011;10210;52.284;9.892;2023-04-24T11:10:47;4.83;;;2.33;;
20101;SDS011;10210;52.284;9.892;2023-04-24T11:32:27;4.13;;;1.80;;
20101;SDS011;10210;52.284;9.892;2023-04-24T11:35:17;3.17;;;1.67;;
20101;SDS011;10210;52.284;9.892;2023-04-24T11:37:46;2.67;;;1.57;;
20101;SDS011;10210;52.284;9.892;2023-04-24T11:40:16;3.53;;;1.80;;
20101;SDS011;10210;52.284;9.892;2023-04-24T11:42:45;2.67;;;1.67;;
20101;SDS011;10210;52.284;9.892;2023-04-24T11:45:23;5.53;;;1.93;;
20101;SDS011;10210;52.284;9.892;2023-04-24T11:47:51;3.07;;;1.50;;
20101;SDS011;10210;52.284;9.892;2023-04-24T11:50:19;3.83;;;1.50;;
20101;SDS011;10210;52.284;9.892;2023-04-24T11:52:48;3.70;;;1.90;;
20101;SDS011;10210;52.284;9.892;2023-04-24T11:57:44;3.30;;;1.60;;
20101;SDS011;10210;52.284;9.892;2023-04-24T12:00:16;3.67;;;1.73;;
20101;SDS011;10210;52.284;9.892;2023-04-24T12:02:45;3.33;;;1.60;;
20101;SDS011;10210;52.284;9.892;2023-04-24T12:05:27;2.50;;;1.20;;
20101;SDS011;10210;52.284;9.892;2023-04-24T12:07:55;2.20;;;1.60;;
20101;SDS011;10210;52.284;9.892;2023-04-24T12:10:21;2.27;;;1.40;;
20101;SDS011;10210;52.284;9.892;2023-04-24T12:12:52;2.43;;;1.60;;
20101;SDS011;10210;52.284;9.892;2023-04-24T12:15:21;2.30;;;1.40;;
20101;SDS011;10210;52.284;9.892;2023-04-24T12:17:47;2.37;;;1.37;;
20101;SDS011;10210;52.284;9.892;2023-04-24T12:20:16;1.47;;;1.17;;
20101;SDS011;10210;52.284;9.892;2023-04-24T12:22:48;2.43;;;1.20;;
20101;SDS011;10210;52.284;9.892;2023-04-24T12:25:19;2.83;;;1.30;;
20101;SDS011;10210;52.284;9.892;2023-04-24T12:27:52;2.47;;;1.50;;
20101;SDS011;10210;52.284;9.892;2023-04-24T12:30:21;4.50;;;1.60;;
20101;SDS011;10210;52.284;9.892;2023-04-24T12:32:53;2.53;;;1.57;;
20101;SDS011;10210;52.284;9.892;2023-04-24T12:35:20;1.80;;;1.40;;
20101;SDS011;10210;52.284;9.892;2023-04-24T12:37:49;1.60;;;1.20;;
20101;SDS011;10210;52.284;9.892;2023-04-24T12:40:15;1.30;;;1.20;;
20101;SDS011;10210;52.284;9.892;2023-04-24T12:42:43;2.00;;;1.27;;
20101;SDS011;10210;52.284;9.892;2023-04-24T12:45:14;1.97;;;1.40;;
20101;SDS011;10210;52.284;9.892;2023-04-24T12:47:41;2.00;;;1.37;;
20101;SDS011;10210;52.284;9.892;2023-04-24T12:50:12;2.53;;;1.50;;
20101;SDS011;10210;52.284;9.892;2023-04-24T12:52:40;2.57;;;1.40;;
20101;SDS011;10210;52.284;9.892;2023-04-24T12:55:07;2.03;;;1.50;;
20101;SDS011;10210;52.284;9.892;2023-04-24T12:57:34;3.67;;;1.90;;
20101;SDS011;10210;52.284;9.892;2023-04-24T13:00:02;3.87;;;2.03;;
20101;SDS011;10210;52.284;9.892;2023-04-24T13:02:30;3.17;;;1.93;;
20101;SDS011;10210;52.284;9.892;2023-04-24T13:04:56;4.10;;;2.00;;
20101;SDS011;10210;52.284;9.892;2023-04-24T13:07:23;4.13;;;1.87;;
20101;SDS011;10210;52.284;9.892;2023-04-24T13:09:49;5.03;;;2.10;;
20101;SDS011;10210;52.284;9.892;2023-04-24T13:12:16;3.67;;;1.77;;
20101;SDS011;10210;52.284;9.892;2023-04-24T13:14:42;3.33;;;1.73;;
20101;SDS011;10210;52.284;9.892;2023-04-24T13:17:08;3.57;;;1.90;;
20101;SDS011;10210;52.284;9.892;2023-04-24T13:19:35;2.47;;;1.73;;
20101;SDS011;10210;52.284;9.892;2023-04-24T13:22:03;3.27;;;1.63;;
20101;SDS011;10210;52.284;9.892;2023-04-24T13:24:29;2.30;;;1.53;;
20101;SDS011;10210;52.284;9.892;2023-04-24T13:26:56;4.23;;;1.80;;
20101;SDS011;10210;52.284;9.892;2023-04-24T13:29:22;2.40;;;1.57;;
20101;SDS011;10210;52.284;9.892;2023-04-24T13:31:50;2.33;;;1.63;;
20101;SDS011;10210;52.284;9.892;2023-04-24T13:34:16;2.17;;;1.37;;
20101;SDS011;10210;52.284;9.892;2023-04-24T13:36:43;1.87;;;1.30;;
20101;SDS011;10210;52.284;9.892;2023-04-24T13:39:09;2.90;;;1.40;;
20101;SDS011;10210;52.284;9.892;2023-04-24T13:41:35;2.33;;;1.40;;
20101;SDS011;10210;52.284;9.892;2023-04-24T13:44:02;1.80;;;1.20;;
20101;SDS011;10210;52.284;9.892;2023-04-24T13:46:29;1.60;;;1.20;;
20101;SDS011;10210;52.284;9.892;2023-04-24T13:48:56;2.37;;;1.30;;
20101;SDS011;10210;52.284;9.892;2023-04-24T13:51:23;1.87;;;1.17;;
20101;SDS011;10210;52.284;9.892;2023-04-24T13:53:54;3.60;;;1.20;;
20101;SDS011;10210;52.284;9.892;2023-04-24T13:56:20;1.30;;;1.10;;
20101;SDS011;10210;52.284;9.892;2023-04-24T13:58:47;2.13;;;0.90;;
20101;SDS011;10210;52.284;9.892;2023-04-24T14:01:13;4.00;;;1.20;;
20101;SDS011;10210;52.284;9.892;2023-04-24T14:03:40;1.00;;;0.60;;
20101;SDS011;10210;52.284;9.892;2023-04-24T14:06:08;1.67;;;1.10;;
20101;SDS011;10210;52.284;9.892;2023-04-24T14:08:33;1.47;;;0.80;;
20101;SDS011;10210;52.284;9.892;2023-04-24T14:10:59;0.90;;;0.80;;
20101;SDS011;10210;52.284;9.892;2023-04-24T14:13:25;1.97;;;0.87;;
20101;SDS011;10210;52.284;9.892;2023-04-24T14:15:51;1.60;;;0.90;;
20101;SDS011;10210;52.284;9.892;2023-04-24T14:18:17;1.00;;;0.90;;
20101;SDS011;10210;52.284;9.892;2023-04-24T14:20:43;1.23;;;0.90;;
20101;SDS011;10210;52.284;9.892;2023-04-24T14:23:10;3.20;;;1.07;;
20101;SDS011;10210;52.284;9.892;2023-04-24T14:25:35;3.13;;;1.10;;
20101;SDS011;10210;52.284;9.892;2023-04-24T14:28:01;1.47;;;1.10;;
20101;SDS011;10210;52.284;9.892;2023-04-24T14:30:27;2.77;;;1.20;;
20101;SDS011;10210;52.284;9.892;2023-04-24T14:32:52;2.40;;;1.20;;
20101;SDS011;10210;52.284;9.892;2023-04-24T14:35:18;2.43;;;1.10;;
20101;SDS011;10210;52.284;9.892;2023-04-24T14:37:44;1.97;;;1.10;;
20101;SDS011;10210;52.284;9.892;2023-04-24T14:40:10;1.97;;;1.23;;
20101;SDS011;10210;52.284;9.892;2023-04-24T14:42:36;2.57;;;1.50;;
20101;SDS011;10210;52.284;9.892;2023-04-24T14:45:02;4.23;;;1.40;;
20101;SDS011;10210;52.284;9.892;2023-04-24T14:47:28;2.40;;;1.40;;
20101;SDS011;10210;52.284;9.892;2023-04-24T14:49:54;3.93;;;1.63;;
20101;SDS011;10210;52.284;9.892;2023-04-24T14:52:20;4.40;;;1.70;;
20101;SDS011;10210;52.284;9.892;2023-04-24T14:54:46;6.03;;;1.90;;
20101;SDS011;10210;52.284;9.892;2023-04-24T14:57:12;6.00;;;2.20;;
20101;SDS011;10210;52.284;9.892;2023-04-24T14:59:39;6.73;;;2.67;;
20101;SDS011;10210;52.284;9.892;2023-04-24T15:02:06;7.67;;;2.50;;
20101;SDS011;10210;52.284;9.892;2023-04-24T15:04:31;6.67;;;2.50;;
20101;SDS011;10210;52.284;9.892;2023-04-24T15:06:57;9.53;;;2.60;;
20101;SDS011;10210;52.284;9.892;2023-04-24T15:09:23;9.80;;;2.87;;
20101;SDS011;10210;52.284;9.892;2023-04-24T15:11:50;10.13;;;3.10;;
20101;SDS011;10210;52.284;9.892;2023-04-24T15:14:16;10.30;;;3.13;;